John C Widener — WBB7807 — position and weather

sailwx.info

Track history (hours):
 
Tides and Currents Weather Stations Pressure Air Temp Water Temp Dewpoint Dewpoint Depression Visibility Wind Speed Wind Dir Waves Ship Positions

John C Widener

Owner: State of Maryland, DNR, Annapolis, MD. More information available from US FCC via Universal Licensing System and Coast Guard Vessel Documentation Center.

Last reported at 2018-Jan-25 13:58 UTC. Time now 2018-Feb-24 21:34 UTC.
Position N 38°52' W 076°26'.
Warning: this ship's position is 30 days out of date.

Length 22 m.

Type: Other ship. MMSI: 338154549.

Date/timePositionNaut miles runAvg speedWind from/ knotsBaromVisibWave heightAir tempDewpointWater temp
2018-Jan-25 13:58N 38°52' W 076°26'510.1
2018-Jan-25 13:28N 38°57' W 076°26'3 0.1
2018-Jan-23 18:16N 38°59' W 076°29'0 0.0
2018-Jan-23 17:58N 38°59' W 076°29'0 0.0
2018-Jan-23 17:25N 38°59' W 076°29'0 0.0
2018-Jan-23 16:40N 38°59' W 076°29'0 0.0
2018-Jan-23 16:19N 38°59' W 076°29'0 0.0
2018-Jan-23 15:25N 38°59' W 076°29'0 0.0
2018-Jan-23 14:49N 38°59' W 076°29'0 0.0
2018-Jan-22 19:23N 38°59' W 076°29'2 4.8
2018-Jan-22 19:00N 38°58' W 076°27'3 6.0
2018-Jan-22 18:30N 38°55' W 076°28'1 2.0
2018-Jan-22 18:00N 38°55' W 076°26'2 4.9
2018-Jan-22 17:30N 38°55' W 076°30'0 0.6
2018-Jan-22 17:00N 38°55' W 076°30'3 6.5
2018-Jan-22 16:30N 38°52' W 076°30'1 2.7
2018-Jan-22 16:00N 38°53' W 076°31'4 7.1
2018-Jan-22 15:30N 38°51' W 076°27'510.1
2018-Jan-22 15:00N 38°46' W 076°26'  
Track history (hours):
 
Tides and Currents Weather Stations Pressure Air Temp Water Temp Dewpoint Dewpoint Depression Visibility Wind Speed Wind Dir Waves Ship Positions

John C Widener

Owner: State of Maryland, DNR, Annapolis, MD. More information available from US FCC via Universal Licensing System and Coast Guard Vessel Documentation Center.

Last reported at 2018-Jan-25 13:58 UTC. Time now 2018-Feb-24 21:34 UTC.
Position N 38°52' W 076°26'.
Warning: this ship's position is 30 days out of date.

Length 22 m.

Type: Other ship. MMSI: 338154549.

Date/timePositionNaut miles runAvg speedWind from/ knotsBaromVisibWave heightAir tempDewpointWater temp
2018-Jan-25 13:58N 38°52' W 076°26'510.1
2018-Jan-25 13:28N 38°57' W 076°26'3 0.1
2018-Jan-23 18:16N 38°59' W 076°29'0 0.0
2018-Jan-23 17:58N 38°59' W 076°29'0 0.0
2018-Jan-23 17:25N 38°59' W 076°29'0 0.0
2018-Jan-23 16:40N 38°59' W 076°29'0 0.0
2018-Jan-23 16:19N 38°59' W 076°29'0 0.0
2018-Jan-23 15:25N 38°59' W 076°29'0 0.0
2018-Jan-23 14:49N 38°59' W 076°29'0 0.0
2018-Jan-22 19:23N 38°59' W 076°29'2 4.8
2018-Jan-22 19:00N 38°58' W 076°27'3 6.0
2018-Jan-22 18:30N 38°55' W 076°28'1 2.0
2018-Jan-22 18:00N 38°55' W 076°26'2 4.9
2018-Jan-22 17:30N 38°55' W 076°30'0 0.6
2018-Jan-22 17:00N 38°55' W 076°30'3 6.5
2018-Jan-22 16:30N 38°52' W 076°30'1 2.7
2018-Jan-22 16:00N 38°53' W 076°31'4 7.1
2018-Jan-22 15:30N 38°51' W 076°27'510.1
2018-Jan-22 15:00N 38°46' W 076°26'  

Dump ship's entire track history